• Join FlightAware (Why Join?)
  • Login
  • US Flag 
08:50PM EST


 

Airport Tracker/Info


-or-


 

Live Flight TrackerFlight Track Log ✈ AAY843 ✈ 21-Mar-2014 ✈ KSYR - KPIE

Flight Track Log - Related Links

Times and Time Zones

All times are in EDT time to prevent confusion due to time zone crossing. See the AAY843 flight status page for this flight to view local times or setup timezone preferences in your user account.

Time Position Orientation Groundspeed Altitude Reporting Facility
EDT Latitude Longitude Course Direction KTS MPH feet Rate Location/Type
07:56PM 43.1081 -76.1422 267° West 162 186 1,400  Level Boston Center
07:56PM 43.1061 -76.1911 267° West 183 211 2,700 2,220 Climbing Boston Center
07:57PM 43.0544 -76.2567 223° Southwest 267 307 5,500 2,640 Climbing Boston Center
07:58PM 43.0431 -76.2647 207° Southwest 244 281 6,100 3,060 Climbing Boston Center
07:59PM 42.9781 -76.3144 209° Southwest 264 304 9,200 1,860 Climbing Boston Center
08:00PM 42.9050 -76.3769 212° Southwest 316 364 10,000 1,320 Climbing Boston Center
08:01PM 42.8175 -76.4453 210° Southwest 358 412 11,900 2,040 Climbing Boston Center
08:02PM 42.7317 -76.5150 211° Southwest 369 425 14,300 2,340 Climbing Boston Center
08:03PM 42.6386 -76.5908 211° Southwest 385 443 16,800 2,160 Climbing Boston Center
08:04PM 42.5414 -76.6689 211° Southwest 401 461 18,800 2,280 Climbing Boston Center
08:05PM 42.4217 -76.7653 211° Southwest 412 474 21,500 2,160 Climbing Boston Center
08:06PM 42.3206 -76.8464 211° Southwest 419 482 23,200 1,740 Climbing Boston Center
08:07PM 42.2153 -76.9300 210° Southwest 430 495 25,100 1,860 Climbing Boston Center
08:08PM 42.1083 -77.0028 207° Southwest 432 497 27,100 1,620 Climbing Boston Center
08:09PM 41.9747 -76.9881 175° South 483 556 28,400 1,140 Climbing Boston Center
08:10PM 41.8367 -76.9394 165° South 505 581 29,500 1,020 Climbing Boston Center
08:11PM 41.6703 -76.8858 166° South 502 578 30,800 1,020 Climbing New York Center
08:12PM 41.5328 -76.8428 167° South 507 583 31,800 1,080 Climbing New York Center
08:13PM 41.3928 -76.8522 183° South 473 544 33,000 600 Climbing New York Center
08:14PM 41.2756 -76.9025 198° South 458 527 33,000  Level New York Center
08:15PM 41.1564 -76.9494 197° South 453 521 33,000  Level New York Center
08:16PM 41.0394 -76.9967 197° South 453 521 33,000  Level New York Center
08:17PM 40.9222 -77.0436 197° South 448 516 33,000  Level New York Center
08:18PM 40.8072 -77.0906 197° South 448 516 33,000  Level New York Center
08:19PM 40.6900 -77.1375 197° South 448 516 33,000  Level New York Center
08:20PM 40.5753 -77.1814 196° South 448 516 33,000  Level New York Center
08:21PM 40.4600 -77.2281 197° South 442 509 33,000  Level New York Center
08:23PM 40.2158 -77.3219 196° South 433 498 33,000  Level Washington Center
08:24PM 40.0986 -77.3678 197° South 438 504 33,000  Level Washington Center
08:25PM 39.9853 -77.4139 197° South 438 504 33,000  Level Washington Center
08:26PM 39.8700 -77.4569 196° South 438 504 33,000  Level Washington Center
08:27PM 39.7528 -77.5025 197° South 438 504 33,000  Level Washington Center
08:28PM 39.6353 -77.5478 197° South 444 511 33,000  Level Washington Center
08:29PM 39.5200 -77.5903 196° South 444 511 33,000  Level Washington Center
08:30PM 39.4047 -77.6356 197° South 444 511 33,000 -540 Level Washington Center
08:31PM 39.2892 -77.6806 197° South 444 511 32,000 -540 Descending Washington Center
08:32PM 39.1717 -77.7228 196° South 444 511 32,000  Level Washington Center
08:33PM 39.0542 -77.7675 196° South 438 504 32,000  Level Washington Center
08:34PM 38.9514 -77.8069 197° South 443 510 32,000  Level Washington Center
08:35PM 38.8317 -77.8514 196° South 443 510 32,000  Level Washington Center
08:36PM 38.7142 -77.8983 197° South 448 516 32,000  Level Washington Center
08:37PM 38.5986 -77.9400 196° South 442 509 32,000  Level Washington Center
08:38PM 38.4850 -77.9894 199° South 442 509 32,000  Level Washington Center
08:39PM 38.3817 -78.0522 205° Southwest 432 497 32,000  Level Washington Center
08:40PM 38.2761 -78.1150 205° Southwest 421 484 32,000  Level Washington Center
08:41PM 38.1706 -78.1747 204° Southwest 421 484 32,000  Level Washington Center
08:42PM 38.0669 -78.2344 204° Southwest 421 484 32,000  Level Washington Center
08:43PM 37.9636 -78.2914 203° Southwest 415 478 32,000  Level Washington Center
08:44PM 37.8600 -78.3536 205° Southwest 410 472 32,000  Level Washington Center
08:45PM 37.7436 -78.4203 204° Southwest 410 472 32,000  Level Washington Center
08:46PM 37.6381 -78.4767 203° Southwest 410 472 32,000  Level Washington Center
08:47PM 37.5322 -78.5381 205° Southwest 410 472 32,000  Level Washington Center
08:48PM 37.4264 -78.5967 204° Southwest 415 478 32,000  Level Washington Center
08:49PM 37.3314 -78.6478 203° Southwest 415 478 32,000  Level Washington Center
08:50PM 37.2275 -78.7064 204° Southwest 415 478 32,000  Level Washington Center
08:51PM 37.1217 -78.7672 205° Southwest 415 478 32,000  Level Washington Center
08:52PM 37.0136 -78.8278 204° Southwest 420 483 32,000  Level Washington Center
08:53PM 36.9078 -78.8856 204° Southwest 420 483 32,000  Level Washington Center
08:54PM 36.7911 -78.9506 204° Southwest 420 483 32,000  Level Washington Center
08:55PM 36.6833 -79.0081 203° Southwest 420 483 32,000  Level Washington Center
08:56PM 36.5819 -79.0425 195° South 420 483 32,000  Level Washington Center
08:57PM 36.4622 -79.0758 193° South 428 493 32,000  Level Washington Center
08:58PM 36.3464 -79.1119 194° South 434 499 32,000  Level Washington Center
08:59PM 36.2306 -79.1428 192° South 434 499 32,000  Level Washington Center
09:00PM 36.1128 -79.1761 193° South 434 499 32,000  Level Washington Center
09:01PM 35.9950 -79.2094 193° South 434 499 32,000  Level Washington Center
09:02PM 35.8792 -79.2425 193° South 434 499 32,000  Level Washington Center
09:03PM 35.7633 -79.2756 193° South 439 505 32,000  Level Washington Center
09:04PM 35.6456 -79.3083 193° South 439 505 32,000  Level Washington Center
09:05PM 35.5278 -79.3386 192° South 429 494 32,000  Level Washington Center
09:06PM 35.4014 -79.3736 193° South 429 494 32,000  Level Washington Center
09:07PM 35.2919 -79.4039 193° South 440 506 32,000  Level Washington Center
09:08PM 35.1761 -79.4367 193° South 440 506 32,000  Level Washington Center
09:09PM 35.0583 -79.4664 192° South 434 499 32,000  Level Washington Center
09:11PM 34.8222 -79.5292 192° South 437 503 32,000  Level Jacksonville Center
09:12PM 34.7061 -79.5617 193° South 437 503 32,000  Level Jacksonville Center
09:13PM 34.5881 -79.5939 193° South 432 497 32,000  Level Jacksonville Center
09:14PM 34.4811 -79.6458 202° Southwest 427 491 32,000  Level Jacksonville Center
09:15PM 34.3869 -79.7222 214° Southwest 412 474 32,000 -60 Level Jacksonville Center
09:16PM 34.2969 -79.7933 213° Southwest 405 466 31,900 -60 Descending Jacksonville Center
09:17PM 34.2047 -79.8644 213° Southwest 405 466 31,900  Level Jacksonville Center
09:18PM 34.1086 -79.9356 211° Southwest 405 466 31,900  Level Jacksonville Center
09:19PM 34.0100 -80.0092 212° Southwest 411 473 31,900  Level Jacksonville Center
09:20PM 33.9178 -80.0822 213° Southwest 411 473 31,900  Level Jacksonville Center
09:21PM 33.8214 -80.1528 211° Southwest 411 473 31,900  Level Jacksonville Center
09:22PM 33.7247 -80.2281 213° Southwest 411 473 31,900  Level Jacksonville Center
09:23PM 33.6325 -80.2983 212° Southwest 411 473 31,900  Level Jacksonville Center
09:24PM 33.5358 -80.3708 212° Southwest 411 473 32,000  Climbing Jacksonville Center
09:25PM 33.4392 -80.4433 212° Southwest 411 473 31,900  Descending Jacksonville Center
09:26PM 33.3444 -80.5156 213° Southwest 411 473 32,000  Climbing Jacksonville Center
09:27PM 33.2561 -80.5825 212° Southwest 411 473 31,900 -60 Descending Jacksonville Center
09:28PM 33.1592 -80.6494 210° Southwest 411 473 31,900  Level Jacksonville Center
09:29PM 33.0622 -80.7214 212° Southwest 411 473 31,900  Level Jacksonville Center
09:30PM 32.9675 -80.7931 212° Southwest 411 473 31,900  Level Jacksonville Center
09:31PM 32.8683 -80.8669 212° Southwest 411 473 31,900  Level Jacksonville Center
09:32PM 32.7694 -80.9383 211° Southwest 417 480 32,000  Climbing Jacksonville Center
09:33PM 32.6722 -81.0097 212° Southwest 417 480 31,900  Descending Jacksonville Center
09:34PM 32.5753 -81.0806 212° Southwest 417 480 32,000  Climbing Jacksonville Center
09:35PM 32.4700 -81.1592 212° Southwest 412 474 32,000 -60 Level Jacksonville Center
09:36PM 32.3789 -81.2222 210° Southwest 412 474 31,900  Descending Jacksonville Center
09:37PM 32.2817 -81.2928 212° Southwest 417 480 32,000  Climbing Jacksonville Center
09:38PM 32.1739 -81.3561 206° Southwest 422 486 32,000  Level Jacksonville Center
09:39PM 32.0431 -81.4097 199° South 445 512 32,000  Level Jacksonville Center
09:40PM 31.9392 -81.4481 197° South 445 512 32,000  Level Jacksonville Center
09:41PM 31.8103 -81.5014 199° South 450 518 32,000  Level Jacksonville Center
09:42PM 31.7022 -81.5422 198° South 450 518 32,000  Level Jacksonville Center
09:43PM 31.5733 -81.5953 199° South 445 512 32,000  Level Jacksonville Center
09:44PM 31.4547 -81.6408 198° South 455 524 32,000 -60 Level Jacksonville Center
09:45PM 31.3361 -81.6861 198° South 450 518 31,900 -60 Descending Jacksonville Center
09:46PM 31.2175 -81.7361 200° South 450 518 31,900  Level Jacksonville Center
09:47PM 31.1011 -81.7814 198° South 441 507 31,900  Level Jacksonville Center
09:48PM 30.9825 -81.8264 198° South 441 507 31,900  Level Jacksonville Center
09:49PM 30.8636 -81.8711 198° South 441 507 31,900  Level Jacksonville Center
09:50PM 30.7450 -81.9183 199° South 441 507 31,900  Level Jacksonville Center
09:51PM 30.6264 -81.9656 199° South 446 513 31,900  Level Jacksonville Center
09:52PM 30.5181 -82.0003 195° South 446 513 31,900  Level Jacksonville Center
09:53PM 30.3994 -82.0472 199° South 446 513 31,900  Level Jacksonville Center
09:54PM 30.2956 -82.1178 210° Southwest 440 506 32,000  Climbing Jacksonville Center
09:55PM 30.2000 -82.1931 214° Southwest 430 495 31,900 -120 Descending Jacksonville Center
09:56PM 30.0939 -82.2658 211° Southwest 435 501 31,800 -600 Descending Jacksonville Center
09:57PM 29.9542 -82.3078 195° South 446 513 30,700 -1,020 Descending Jacksonville Center
09:58PM 29.8289 -82.3253 187° South 452 520 29,800 -1,020 Descending Jacksonville Center
09:59PM 29.7036 -82.3403 186° South 458 527 28,700 -1,500 Descending Jacksonville Center
10:00PM 29.5764 -82.3600 188° South 458 527 26,900 -1,260 Descending Jacksonville Center
10:01PM 29.4492 -82.3464 175° South 458 527 26,200 -1,320 Descending Jacksonville Center
10:02PM 29.3236 -82.3281 173° South 458 527 24,300 -1,800 Descending Jacksonville Center
10:03PM 29.2025 -82.3122 173° South 458 527 22,700 -1,800 Descending Jacksonville Center
10:04PM 29.0961 -82.2986 174° South 436 502 20,800 -2,100 Descending Jacksonville Center
10:05PM 28.9936 -82.2897 176° South 392 451 18,500 -2,340 Descending Jacksonville Center
10:06PM 28.9167 -82.3186 198° South 342 394 16,200 -2,400 Descending Jacksonville Center
10:07PM 28.8269 -82.3333 188° South 337 388 13,800 -1,620 Descending Jacksonville Center
10:08PM 28.7517 -82.2744 146° Southeast 307 353 13,000 -600 Descending Jacksonville Center
10:10PM 28.5833 -82.2667 178° South 302 348 12,100 -660 Descending Tampa TRACON
10:11PM 28.5167 -82.3167 213° Southwest 290 334 11,200 -960 Descending Tampa TRACON
10:12PM 28.4667 -82.4000 236° Southwest 290 334 10,200 -600 Descending Tampa TRACON
10:13PM 28.4167 -82.4667 230° Southwest 287 330 10,000 -420 Descending Tampa TRACON
10:14PM 28.3833 -82.5333 240° Southwest 277 319 9,400 -1,080 Descending Tampa TRACON
10:15PM 28.3333 -82.6000 230° Southwest 269 310 7,900 -1,980 Descending Tampa TRACON
10:16PM 28.3000 -82.6667 240° Southwest 257 296 5,500 -2,520 Descending Tampa TRACON
10:17PM 28.2333 -82.7167 213° Southwest 261 300 3,200 -1,620 Descending Tampa TRACON
10:18PM 28.1833 -82.7333 196° South 210 242 2,500 -360 Descending Tampa TRACON
10:19PM 28.1167 -82.7333 180° South 161 185 2,500  Level Tampa TRACON
10:20PM 28.0833 -82.7167 156° South 168 193 2,500 -180 Level Tampa TRACON
10:21PM 28.0333 -82.7167 180° South 165 190 2,200 -600 Descending Tampa TRACON
10:22PM 28.0000 -82.7000 156° South 124 143 1,300 -780 Descending Tampa TRACON
10:23PM 27.9667 -82.7000 180° South 128 147 600 -720 Descending Tampa TRACON